Time;durP1;ratioP1;P1;durP2;ratioP2;P2;SDS_P1;SDS_P2;PMS_P1;PMS_P2;Temp;Humidity;BMP_temperature;BMP_pressure;BME280_temperature;BME280_humidity;BME280_pressure;Samples;Min_cycle;Max_cycle;Signal;HPM_P1;HPM_P2
2020/12/28 00:01:59;;;;;;;0.13;0.13;;;8.10;92.90;;;;;;4177296;28;20061;-84
2020/12/28 00:04:00;;;;;;;0.20;0.20;;;8.10;93.10;;;;;;4179591;28;20127;-84
2020/12/28 00:06:01;;;;;;;0.20;0.20;;;8.10;93.00;;;;;;4147680;28;20477;-84
2020/12/28 00:08:02;;;;;;;1.00;0.20;;;8.10;93.10;;;;;;4159867;28;20053;-84
2020/12/28 00:10:05;;;;;;;0.20;0.20;;;8.10;93.30;;;;;;4169423;28;20048;-84
2020/12/28 00:12:06;;;;;;;0.20;0.20;;;8.10;93.30;;;;;;4147860;28;20056;-84
2020/12/28 00:14:07;;;;;;;0.22;0.22;;;8.10;93.30;;;;;;4155690;28;20069;-84
2020/12/28 00:16:11;;;;;;;1.55;0.40;;;8.10;93.40;;;;;;4143567;28;20054;-84
2020/12/28 00:18:12;;;;;;;0.28;0.28;;;8.10;93.40;;;;;;4163302;28;20498;-84
2020/12/28 00:20:14;;;;;;;0.17;0.17;;;8.20;93.40;;;;;;4178828;28;20056;-84
2020/12/28 00:22:16;;;;;;;0.50;0.35;;;8.10;93.40;;;;;;4165479;28;20045;-85
2020/12/28 00:24:17;;;;;;;0.10;0.10;;;8.10;93.50;;;;;;4180026;28;20195;-84
2020/12/28 00:26:19;;;;;;;0.10;0.10;;;8.10;93.40;;;;;;4146787;28;20514;-84
2020/12/28 00:28:20;;;;;;;0.30;0.25;;;8.10;93.50;;;;;;4157254;28;20132;-84
2020/12/28 00:30:21;;;;;;;0.73;0.40;;;8.10;93.40;;;;;;4162033;28;20060;-84
2020/12/28 00:32:22;;;;;;;0.20;0.20;;;8.10;93.50;;;;;;4184171;28;20056;-84
2020/12/28 00:34:24;;;;;;;0.20;0.20;;;8.10;93.40;;;;;;4157377;28;20045;-85
2020/12/28 00:36:25;;;;;;;0.20;0.20;;;8.20;93.50;;;;;;4164294;28;20055;-85
2020/12/28 00:38:27;;;;;;;0.20;0.20;;;8.10;93.40;;;;;;4179938;28;20496;-85
2020/12/28 00:40:29;;;;;;;0.98;0.22;;;8.20;93.50;;;;;;4177031;28;20053;-85
2020/12/28 00:42:30;;;;;;;0.30;0.30;;;8.10;93.60;;;;;;4166038;28;20136;-84
2020/12/28 00:44:31;;;;;;;0.10;0.10;;;8.10;93.60;;;;;;4146469;28;20064;-84
2020/12/28 00:46:32;;;;;;;0.20;0.20;;;8.10;93.70;;;;;;4177698;28;20049;-84
2020/12/28 00:48:35;;;;;;;0.20;0.20;;;8.10;93.80;;;;;;4161436;28;20051;-84
2020/12/28 00:50:36;;;;;;;0.10;0.10;;;8.10;93.70;;;;;;4163412;28;20498;-84
2020/12/28 00:52:37;;;;;;;0.25;0.20;;;8.10;93.80;;;;;;4146214;28;20053;-84
2020/12/28 00:54:38;;;;;;;0.30;0.30;;;8.10;93.80;;;;;;4161340;28;20132;-85
2020/12/28 00:56:40;;;;;;;0.30;0.30;;;8.00;93.80;;;;;;4191895;28;20066;-85
2020/12/28 00:58:41;;;;;;;0.40;0.30;;;8.10;93.80;;;;;;4146948;28;20046;-85
2020/12/28 01:00:42;;;;;;;0.47;0.38;;;8.10;93.80;;;;;;4192768;28;20040;-84
2020/12/28 01:02:43;;;;;;;0.10;0.10;;;8.10;93.70;;;;;;4169224;28;20052;-85
2020/12/28 01:04:45;;;;;;;0.20;0.20;;;8.00;93.80;;;;;;4164726;28;20053;-84
2020/12/28 01:06:46;;;;;;;0.10;0.10;;;8.00;93.80;;;;;;4163315;28;20092;-84
2020/12/28 01:08:47;;;;;;;0.43;0.43;;;8.10;93.80;;;;;;4157017;28;20092;-84
2020/12/28 01:10:48;;;;;;;0.25;0.20;;;8.10;93.80;;;;;;4174718;28;20064;-84
2020/12/28 01:12:50;;;;;;;0.10;0.10;;;8.00;93.80;;;;;;4165538;28;20081;-84
2020/12/28 01:14:51;;;;;;;0.20;0.20;;;8.00;93.80;;;;;;4146329;28;20132;-85
2020/12/28 01:16:52;;;;;;;0.20;0.20;;;8.10;93.70;;;;;;4147679;28;20240;-85
2020/12/28 01:18:54;;;;;;;0.10;0.10;;;8.10;93.70;;;;;;4184321;28;20514;-84
2020/12/28 01:20:55;;;;;;;0.20;0.20;;;8.10;93.50;;;;;;4176788;28;20060;-84
2020/12/28 01:22:57;;;;;;;0.20;0.20;;;8.10;93.30;;;;;;4162987;28;20120;-84
2020/12/28 01:24:58;;;;;;;0.30;0.30;;;8.10;93.30;;;;;;4159685;28;20068;-84
2020/12/28 01:26:59;;;;;;;0.10;0.10;;;8.10;93.10;;;;;;4162123;28;20071;-84
2020/12/28 01:29:01;;;;;;;0.10;0.10;;;8.10;93.10;;;;;;4165261;28;20052;-85
2020/12/28 01:31:02;;;;;;;0.10;0.10;;;8.10;92.80;;;;;;4186207;28;20045;-84
2020/12/28 01:33:04;;;;;;;0.13;0.13;;;8.10;92.80;;;;;;4159127;28;20046;-84
2020/12/28 01:35:05;;;;;;;0.38;0.38;;;8.10;92.70;;;;;;4177958;28;20136;-84
2020/12/28 01:37:06;;;;;;;0.20;0.20;;;8.10;92.60;;;;;;4193938;28;20044;-84
2020/12/28 01:39:08;;;;;;;0.10;0.10;;;8.10;92.60;;;;;;4165204;28;20452;-86
2020/12/28 01:41:09;;;;;;;0.22;0.22;;;8.10;92.60;;;;;;4148652;28;20054;-84
2020/12/28 01:43:10;;;;;;;0.20;0.20;;;8.00;92.40;;;;;;4147688;28;20060;-83
2020/12/28 01:45:12;;;;;;;0.17;0.17;;;8.10;92.20;;;;;;4133587;28;20136;-84
2020/12/28 01:47:14;;;;;;;0.10;0.10;;;8.10;92.10;;;;;;4181563;28;20118;-84
2020/12/28 01:49:15;;;;;;;0.20;0.20;;;8.20;91.90;;;;;;4163947;28;20048;-84
2020/12/28 01:51:17;;;;;;;0.20;0.20;;;8.10;91.90;;;;;;4149727;28;20140;-85
2020/12/28 01:53:19;;;;;;;0.20;0.20;;;8.10;92.00;;;;;;4194715;28;20128;-84
2020/12/28 01:55:20;;;;;;;0.25;0.25;;;8.10;91.90;;;;;;4164921;28;20160;-84
2020/12/28 01:57:21;;;;;;;0.10;0.10;;;8.10;91.70;;;;;;4165337;28;20538;-84
2020/12/28 01:59:23;;;;;;;0.13;0.13;;;8.20;91.60;;;;;;4159249;28;20051;-84
2020/12/28 02:01:24;;;;;;;0.20;0.20;;;8.20;91.80;;;;;;4164279;28;20062;-85
2020/12/28 02:03:27;;;;;;;0.13;0.13;;;8.20;91.90;;;;;;4165486;28;20208;-85
2020/12/28 02:05:28;;;;;;;0.10;0.10;;;8.20;92.00;;;;;;4182527;28;20394;-85
2020/12/28 02:07:31;;;;;;;0.30;0.30;;;8.10;92.00;;;;;;4182181;28;20099;-84
2020/12/28 02:09:32;;;;;;;2.60;0.50;;;8.10;92.00;;;;;;4168300;28;20052;-83
2020/12/28 02:11:33;;;;;;;0.15;0.15;;;8.20;91.90;;;;;;4165591;28;20053;-85
2020/12/28 02:13:36;;;;;;;0.75;0.30;;;8.20;91.90;;;;;;4181726;28;20160;-85
2020/12/28 02:15:38;;;;;;;0.20;0.20;;;8.20;91.90;;;;;;4163866;28;20041;-84
2020/12/28 02:17:39;;;;;;;0.10;0.10;;;8.20;91.90;;;;;;4177672;28;20132;-84
2020/12/28 02:19:40;;;;;;;0.20;0.20;;;8.20;91.80;;;;;;4180259;28;20051;-84
2020/12/28 02:21:41;;;;;;;0.17;0.17;;;8.20;91.80;;;;;;4181424;28;20152;-84
2020/12/28 02:23:43;;;;;;;0.17;0.17;;;8.20;91.90;;;;;;4161714;28;20148;-85
2020/12/28 02:25:45;;;;;;;0.20;0.20;;;8.10;92.00;;;;;;4163680;28;20073;-85
2020/12/28 02:27:46;;;;;;;0.20;0.20;;;8.10;92.20;;;;;;4168443;28;20052;-85
2020/12/28 02:29:47;;;;;;;0.10;0.10;;;8.10;92.20;;;;;;4148739;28;20041;-85
2020/12/28 02:31:48;;;;;;;0.10;0.10;;;8.10;92.50;;;;;;4192053;28;20127;-86
2020/12/28 02:33:50;;;;;;;0.20;0.20;;;8.10;92.20;;;;;;4179550;28;20499;-85
2020/12/28 02:35:51;;;;;;;0.20;0.20;;;8.10;92.30;;;;;;4212512;28;20055;-85
2020/12/28 02:37:52;;;;;;;0.20;0.20;;;8.10;92.00;;;;;;4164422;28;20160;-85
2020/12/28 02:39:54;;;;;;;0.10;0.10;;;8.10;91.80;;;;;;4148626;28;20060;-86
2020/12/28 02:41:55;;;;;;;0.10;0.10;;;8.10;91.90;;;;;;4149027;28;20128;-85
2020/12/28 02:43:57;;;;;;;0.20;0.20;;;8.10;91.90;;;;;;4174456;28;20111;-85
2020/12/28 02:45:59;;;;;;;0.30;0.30;;;8.10;91.90;;;;;;4184082;28;20048;-85
2020/12/28 02:48:00;;;;;;;0.13;0.13;;;8.10;92.10;;;;;;4163359;28;20148;-85
2020/12/28 02:50:01;;;;;;;0.30;0.30;;;8.00;92.00;;;;;;4147800;28;20137;-85
2020/12/28 02:52:02;;;;;;;0.68;0.45;;;8.10;91.80;;;;;;4172251;28;20055;-85
2020/12/28 02:54:04;;;;;;;0.20;0.20;;;8.10;91.70;;;;;;4148718;28;20052;-85
2020/12/28 02:56:09;;;;;;;;;;;8.10;91.80;;;;;;4180161;28;20060;-85
2020/12/28 02:58:10;;;;;;;0.43;0.30;;;8.10;91.60;;;;;;4208505;28;19926;-85
2020/12/28 03:00:11;;;;;;;0.32;0.32;;;8.10;91.50;;;;;;4181540;28;20543;-85
2020/12/28 03:02:14;;;;;;;0.10;0.10;;;8.00;91.50;;;;;;4164775;28;20138;-85
2020/12/28 03:04:15;;;;;;;0.40;0.30;;;8.10;91.50;;;;;;4165613;28;20512;-85
2020/12/28 03:06:16;;;;;;;1.45;0.25;;;8.10;91.50;;;;;;4165127;28;20128;-86
2020/12/28 03:08:17;;;;;;;0.52;0.10;;;8.10;91.50;;;;;;4163894;28;20057;-85
2020/12/28 03:10:19;;;;;;;0.20;0.20;;;8.10;91.30;;;;;;4140890;28;20049;-85
2020/12/28 03:12:20;;;;;;;0.20;0.20;;;8.10;91.40;;;;;;4198511;28;20048;-85
2020/12/28 03:14:21;;;;;;;0.68;0.50;;;8.10;91.50;;;;;;4164339;28;20064;-84
2020/12/28 03:16:22;;;;;;;0.20;0.20;;;8.10;91.40;;;;;;4150480;28;20052;-85
2020/12/28 03:18:24;;;;;;;0.20;0.20;;;8.10;91.30;;;;;;4147722;28;20060;-85
2020/12/28 03:20:25;;;;;;;0.10;0.10;;;8.10;91.30;;;;;;4162737;28;20505;-85
2020/12/28 03:22:27;;;;;;;0.52;0.52;;;8.00;91.50;;;;;;4190497;28;20056;-85
2020/12/28 03:24:28;;;;;;;0.80;0.80;;;8.10;91.60;;;;;;4150460;28;20431;-85
2020/12/28 03:26:30;;;;;;;0.55;0.55;;;8.10;91.70;;;;;;4164373;28;20077;-85
2020/12/28 03:28:45;;;;;;;0.60;0.40;;;8.00;91.60;;;;;;4179046;28;20053;-86
2020/12/28 03:30:48;;;;;;;0.10;0.10;;;8.00;91.70;;;;;;4180383;28;20043;-85
2020/12/28 03:32:50;;;;;;;0.10;0.10;;;8.00;91.70;;;;;;4180740;28;20049;-84
2020/12/28 03:34:54;;;;;;;0.95;0.40;;;8.00;91.70;;;;;;4163948;28;20053;-86
2020/12/28 03:36:55;;;;;;;0.20;0.20;;;8.00;91.90;;;;;;4176712;28;20048;-85
2020/12/28 03:38:57;;;;;;;0.40;0.20;;;8.00;91.80;;;;;;4164387;28;20064;-85
2020/12/28 03:40:58;;;;;;;0.85;0.85;;;7.90;91.80;;;;;;4161049;28;20087;-85
2020/12/28 03:42:59;;;;;;;0.45;0.38;;;7.90;91.70;;;;;;4170486;28;20061;-85
2020/12/28 03:45:00;;;;;;;0.10;0.10;;;7.90;91.70;;;;;;4147859;28;20079;-85
2020/12/28 03:47:02;;;;;;;0.52;0.52;;;7.90;91.80;;;;;;4168515;28;20493;-86
2020/12/28 03:49:03;;;;;;;0.55;0.55;;;7.90;91.90;;;;;;4167902;28;20053;-85
2020/12/28 03:51:04;;;;;;;0.20;0.20;;;7.90;92.00;;;;;;4163165;28;20494;-85
2020/12/28 03:53:06;;;;;;;0.20;0.20;;;7.90;92.00;;;;;;4147012;28;20058;-85
2020/12/28 03:55:07;;;;;;;0.28;0.28;;;7.80;92.00;;;;;;4163672;28;20075;-84
2020/12/28 03:57:08;;;;;;;0.28;0.28;;;7.80;92.10;;;;;;4147133;28;20056;-84
2020/12/28 03:59:10;;;;;;;0.20;0.20;;;7.80;92.20;;;;;;4146319;28;20128;-85
2020/12/28 04:01:11;;;;;;;0.20;0.20;;;7.80;92.30;;;;;;4161483;28;20049;-85
2020/12/28 04:03:12;;;;;;;0.20;0.20;;;7.70;92.30;;;;;;4147473;28;20092;-85
2020/12/28 04:05:14;;;;;;;0.22;0.22;;;7.70;92.20;;;;;;4171473;28;20103;-85
2020/12/28 04:07:15;;;;;;;0.20;0.20;;;7.70;92.20;;;;;;4156317;28;20052;-84
2020/12/28 04:09:16;;;;;;;0.10;0.10;;;7.70;92.10;;;;;;4147322;28;20125;-85
2020/12/28 04:11:18;;;;;;;0.10;0.10;;;7.70;92.10;;;;;;4161510;28;20046;-85
2020/12/28 04:13:19;;;;;;;0.20;0.20;;;7.70;92.10;;;;;;4163202;28;20517;-85
2020/12/28 04:15:20;;;;;;;0.10;0.10;;;7.70;92.20;;;;;;4147241;28;20402;-84
2020/12/28 04:17:21;;;;;;;0.22;0.22;;;7.70;92.20;;;;;;4175125;28;20057;-84
2020/12/28 04:19:23;;;;;;;0.40;0.32;;;7.70;92.40;;;;;;4161351;28;20049;-85
2020/12/28 04:21:24;;;;;;;0.60;0.30;;;7.60;92.50;;;;;;4179591;28;20053;-86
2020/12/28 04:23:25;;;;;;;0.20;0.20;;;7.60;92.60;;;;;;4194760;28;20055;-87
2020/12/28 04:25:27;;;;;;;0.10;0.10;;;7.60;92.80;;;;;;4146586;28;20153;-85
2020/12/28 04:27:29;;;;;;;0.20;0.20;;;7.60;92.80;;;;;;4164674;28;20057;-85
2020/12/28 04:29:30;;;;;;;0.57;0.50;;;7.60;92.80;;;;;;4141902;28;20046;-85
2020/12/28 04:31:31;;;;;;;0.10;0.10;;;7.60;92.90;;;;;;4161065;28;20079;-85
2020/12/28 04:33:32;;;;;;;0.50;0.50;;;7.60;92.80;;;;;;4146494;28;20052;-83
2020/12/28 04:35:34;;;;;;;0.15;0.15;;;7.70;93.10;;;;;;4168084;28;20055;-85
2020/12/28 04:37:35;;;;;;;0.20;0.20;;;7.70;93.20;;;;;;4169257;28;20049;-84
2020/12/28 04:39:36;;;;;;;0.20;0.20;;;7.60;93.30;;;;;;4144850;28;20426;-85
2020/12/28 04:41:37;;;;;;;0.45;0.25;;;7.60;93.40;;;;;;4167957;28;20057;-85
2020/12/28 04:43:39;;;;;;;0.10;0.10;;;7.70;93.30;;;;;;4172444;28;20045;-85
2020/12/28 04:45:40;;;;;;;0.32;0.30;;;7.60;93.60;;;;;;4178871;28;20049;-85
2020/12/28 04:47:41;;;;;;;0.20;0.20;;;7.70;93.80;;;;;;4163610;28;20050;-85
2020/12/28 04:49:47;;;;;;;0.10;0.10;;;7.60;94.20;;;;;;4189295;28;20048;-85
2020/12/28 04:51:48;;;;;;;0.20;0.20;;;7.70;94.30;;;;;;4176102;28;20132;-84
2020/12/28 04:53:52;;;;;;;0.40;0.40;;;7.70;94.30;;;;;;4146772;28;20137;-85
2020/12/28 04:55:54;;;;;;;0.37;0.30;;;7.70;94.10;;;;;;4188775;28;20048;-85
2020/12/28 04:57:55;;;;;;;1.50;1.10;;;7.70;94.10;;;;;;4179175;28;20132;-86
2020/12/28 04:59:57;;;;;;;1.48;1.10;;;7.70;93.90;;;;;;4145137;28;20062;-85
2020/12/28 05:01:58;;;;;;;0.73;0.30;;;7.80;94.00;;;;;;4158103;28;20132;-85
2020/12/28 05:03:59;;;;;;;1.90;0.28;;;7.80;94.10;;;;;;4169900;28;20555;-85
2020/12/28 05:06:00;;;;;;;0.13;0.13;;;7.80;94.00;;;;;;4148454;28;20478;-85
2020/12/28 05:08:04;;;;;;;0.45;0.45;;;7.80;94.00;;;;;;4145977;28;20057;-84
2020/12/28 05:10:06;;;;;;;0.13;0.13;;;7.80;93.90;;;;;;4179041;28;20528;-86
2020/12/28 05:12:07;;;;;;;0.52;0.28;;;7.80;93.80;;;;;;4146553;28;20129;-85
2020/12/28 05:14:15;;;;;;;0.10;0.10;;;7.80;93.70;;;;;;4145178;28;20057;-85
2020/12/28 05:16:17;;;;;;;0.20;0.20;;;7.80;93.80;;;;;;4162352;28;20053;-85
2020/12/28 05:18:18;;;;;;;0.10;0.10;;;7.80;93.90;;;;;;4131850;28;20042;-85
2020/12/28 05:20:23;;;;;;;0.20;0.20;;;7.80;93.70;;;;;;4167181;28;20057;-85
2020/12/28 05:22:25;;;;;;;0.20;0.20;;;7.80;93.70;;;;;;4139188;28;20064;-85
2020/12/28 05:24:26;;;;;;;0.30;0.30;;;7.80;93.60;;;;;;4131358;28;20069;-85
2020/12/28 05:26:28;;;;;;;0.20;0.20;;;7.80;93.50;;;;;;4179168;28;20052;-85
2020/12/28 05:28:29;;;;;;;0.38;0.38;;;7.80;93.60;;;;;;4171829;28;20060;-83
2020/12/28 05:30:32;;;;;;;0.10;0.10;;;7.80;93.50;;;;;;4147223;28;20481;-88
2020/12/28 05:32:33;;;;;;;0.20;0.20;;;7.90;93.30;;;;;;4208481;28;20047;-89
2020/12/28 05:34:35;;;;;;;0.10;0.10;;;7.90;93.40;;;;;;4179058;28;20044;-89
2020/12/28 05:36:36;;;;;;;0.20;0.20;;;7.90;93.30;;;;;;4179179;28;20432;-88
2020/12/28 05:38:37;;;;;;;2.72;0.32;;;7.90;93.40;;;;;;4192048;28;20488;-88
2020/12/28 05:40:39;;;;;;;0.20;0.20;;;7.90;93.40;;;;;;4178004;28;20052;-89
2020/12/28 05:42:50;;;;;;;0.30;0.20;;;7.90;93.50;;;;;;4192954;28;20048;-88
2020/12/28 05:44:51;;;;;;;3.55;0.35;;;7.90;93.50;;;;;;4180327;28;20049;-88
2020/12/28 05:47:03;;;;;;;0.52;0.52;;;7.90;93.60;;;;;;4162731;28;20073;-88
2020/12/28 05:49:06;;;;;;;0.45;0.45;;;7.90;93.70;;;;;;4163058;28;20045;-89
2020/12/28 05:51:07;;;;;;;0.65;0.63;;;7.90;93.60;;;;;;4147825;28;20054;-89
2020/12/28 05:53:08;;;;;;;0.10;0.10;;;7.90;93.50;;;;;;4207242;28;20517;-88
2020/12/28 05:55:09;;;;;;;0.10;0.10;;;7.90;93.40;;;;;;4161367;28;20472;-88
2020/12/28 05:57:11;;;;;;;0.10;0.10;;;7.90;93.10;;;;;;4147121;28;20062;-87
2020/12/28 05:59:12;;;;;;;0.52;0.52;;;7.90;93.00;;;;;;4179085;28;20428;-88
2020/12/28 06:01:13;;;;;;;0.20;0.20;;;7.90;93.10;;;;;;4176093;28;20049;-88
2020/12/28 06:03:28;;;;;;;0.28;0.20;;;7.90;93.20;;;;;;4146820;28;20129;-88
2020/12/28 06:05:30;;;;;;;;;;;7.90;93.50;;;;;;4194787;28;20119;-88
2020/12/28 06:07:31;;;;;;;0.20;0.20;;;7.90;93.70;;;;;;4206365;28;19920;-88
2020/12/28 06:09:33;;;;;;;0.28;0.28;;;7.90;93.80;;;;;;4162887;28;20513;-87
2020/12/28 06:11:34;;;;;;;0.20;0.20;;;7.90;93.70;;;;;;4209187;28;20052;-87
2020/12/28 06:13:36;;;;;;;0.10;0.10;;;7.90;93.70;;;;;;4177548;28;20045;-87
2020/12/28 06:15:37;;;;;;;0.10;0.10;;;7.90;93.80;;;;;;4176298;28;20047;-87
2020/12/28 06:17:38;;;;;;;0.30;0.30;;;7.90;93.70;;;;;;4163076;28;20049;-86
2020/12/28 06:19:40;;;;;;;0.20;0.20;;;7.80;93.60;;;;;;4184791;28;20120;-84
2020/12/28 06:21:42;;;;;;;0.10;0.10;;;7.80;93.40;;;;;;4150882;28;20058;-88
2020/12/28 06:23:49;;;;;;;0.70;0.20;;;7.80;93.30;;;;;;4164742;28;20480;-87
2020/12/28 06:25:56;;;;;;;0.10;0.10;;;7.80;93.20;;;;;;4182077;28;20048;-87
2020/12/28 06:27:57;;;;;;;0.15;0.15;;;7.80;93.00;;;;;;4179538;28;20071;-87
2020/12/28 06:30:18;;;;;;;0.17;0.17;;;7.80;92.90;;;;;;4166370;28;20136;-87
2020/12/28 06:32:19;;;;;;;0.20;0.20;;;7.80;92.50;;;;;;4181494;28;20069;-86
2020/12/28 06:34:21;;;;;;;0.10;0.10;;;7.80;92.30;;;;;;4181639;28;20136;-87
2020/12/28 06:36:22;;;;;;;0.20;0.20;;;7.80;92.20;;;;;;4182168;28;20092;-87
2020/12/28 06:38:23;;;;;;;0.15;0.15;;;7.80;91.40;;;;;;4180452;28;20535;-86
2020/12/28 06:40:38;;;;;;;0.10;0.10;;;7.90;90.80;;;;;;4180557;28;20044;-87
2020/12/28 06:42:40;;;;;;;0.10;0.10;;;7.80;91.00;;;;;;4180406;28;20045;-87
2020/12/28 06:44:42;;;;;;;0.28;0.20;;;7.80;91.00;;;;;;4150271;28;20060;-87
2020/12/28 06:46:43;;;;;;;0.10;0.10;;;7.80;90.80;;;;;;4172670;28;20137;-87
2020/12/28 06:48:44;;;;;;;0.20;0.20;;;7.80;90.90;;;;;;4179442;28;20046;-87
2020/12/28 06:50:46;;;;;;;0.10;0.10;;;7.80;90.60;;;;;;4182522;28;20091;-87
2020/12/28 06:52:51;;;;;;;0.10;0.10;;;7.80;90.30;;;;;;4181205;28;20517;-86
2020/12/28 06:54:52;;;;;;;0.57;0.35;;;7.80;90.30;;;;;;4162926;28;20056;-87
2020/12/28 06:56:53;;;;;;;0.32;0.32;;;7.70;90.00;;;;;;4183134;28;20109;-85
2020/12/28 06:58:59;;;;;;;0.30;0.30;;;7.70;89.80;;;;;;4181534;28;20103;-87
2020/12/28 07:01:04;;;;;;;0.20;0.20;;;7.70;89.90;;;;;;4195764;28;20105;-85
2020/12/28 07:03:13;;;;;;;0.15;0.10;;;7.70;90.20;;;;;;4196121;28;20044;-85
2020/12/28 07:05:21;;;;;;;0.38;0.38;;;7.70;89.80;;;;;;4179174;28;20049;-89
2020/12/28 07:07:23;;;;;;;0.17;0.17;;;7.60;89.40;;;;;;4163607;28;20499;-92
2020/12/28 07:09:24;;;;;;;0.25;0.25;;;7.60;88.60;;;;;;4183073;28;20053;-92
2020/12/28 07:11:25;;;;;;;0.10;0.10;;;7.60;88.20;;;;;;4181716;28;20125;-93
2020/12/28 07:13:27;;;;;;;0.10;0.10;;;7.60;87.40;;;;;;4178734;28;20077;-92
2020/12/28 07:15:29;;;;;;;0.20;0.20;;;7.60;87.40;;;;;;4187835;28;20053;-92
2020/12/28 07:17:31;;;;;;;1.75;0.38;;;7.60;86.80;;;;;;4175614;28;20060;-92
2020/12/28 07:19:33;;;;;;;0.20;0.20;;;7.50;86.40;;;;;;4158136;28;20045;-94
2020/12/28 07:21:34;;;;;;;0.20;0.20;;;7.50;87.10;;;;;;4148051;28;20050;-93
2020/12/28 07:23:36;;;;;;;0.20;0.20;;;7.50;87.00;;;;;;4172214;28;20060;-92
2020/12/28 07:25:37;;;;;;;0.20;0.20;;;7.50;87.20;;;;;;4161294;28;20045;-91
2020/12/28 07:27:40;;;;;;;0.10;0.10;;;7.50;87.80;;;;;;4147356;28;20039;-89
2020/12/28 07:29:41;;;;;;;0.20;0.20;;;7.50;87.30;;;;;;4133847;28;20121;-90
2020/12/28 07:31:42;;;;;;;1.48;1.38;;;7.40;87.00;;;;;;4160782;28;20059;-92
2020/12/28 07:33:45;;;;;;;0.10;0.10;;;7.50;87.60;;;;;;4137422;28;20054;-92
2020/12/28 07:35:46;;;;;;;0.10;0.10;;;7.50;87.40;;;;;;4156604;28;20038;-90
2020/12/28 07:37:47;;;;;;;0.10;0.10;;;7.50;87.60;;;;;;4154066;28;20050;-92
2020/12/28 07:39:49;;;;;;;0.10;0.10;;;7.40;88.10;;;;;;4150278;28;20545;-92
2020/12/28 07:41:50;;;;;;;0.10;0.10;;;7.40;87.60;;;;;;4143702;28;20057;-91
2020/12/28 07:43:58;;;;;;;0.20;0.20;;;7.40;88.10;;;;;;4147877;28;20219;-91
2020/12/28 07:46:30;;;;;;;0.20;0.20;;;7.40;88.00;;;;;;4144743;28;20118;-92
2020/12/28 07:48:32;;;;;;;0.10;0.10;;;7.40;88.10;;;;;;4156103;28;20052;-92
2020/12/28 07:50:33;;;;;;;0.20;0.20;;;7.40;88.20;;;;;;4162222;28;20060;-92
2020/12/28 07:52:39;;;;;;;0.20;0.20;;;7.50;88.30;;;;;;4142468;28;20042;-92
2020/12/28 07:54:46;;;;;;;0.10;0.10;;;7.40;88.30;;;;;;4142048;28;20056;-91
2020/12/28 07:56:50;;;;;;;0.10;0.10;;;7.40;88.00;;;;;;4148862;28;20056;-91
2020/12/28 07:59:06;;;;;;;0.10;0.10;;;7.40;87.20;;;;;;4148646;28;20050;-90
2020/12/28 08:01:31;;;;;;;0.45;0.35;;;7.40;87.20;;;;;;4155450;28;20046;-91
2020/12/28 08:03:37;;;;;;;0.10;0.10;;;7.40;87.50;;;;;;4145043;28;20050;-91
2020/12/28 08:05:39;;;;;;;0.10;0.10;;;7.40;86.70;;;;;;4157449;28;20084;-87
2020/12/28 08:07:40;;;;;;;0.10;0.10;;;7.40;87.00;;;;;;4162181;28;20104;-91
2020/12/28 08:09:51;;;;;;;0.10;0.10;;;7.40;86.90;;;;;;4161659;28;20601;-88
2020/12/28 08:11:59;;;;;;;0.10;0.10;;;7.40;86.80;;;;;;4164757;28;20145;-92
2020/12/28 08:14:08;;;;;;;0.10;0.10;;;7.40;86.30;;;;;;4163100;28;20073;-91
2020/12/28 08:16:13;;;;;;;0.10;0.10;;;7.40;86.00;;;;;;4167243;28;20658;-91
2020/12/28 08:18:15;;;;;;;0.10;0.10;;;7.40;86.00;;;;;;4144793;28;20112;-90
2020/12/28 08:20:16;;;;;;;0.20;0.20;;;7.30;84.50;;;;;;4147250;28;20176;-92
2020/12/28 08:22:26;;;;;;;0.20;0.20;;;7.30;85.40;;;;;;4154584;28;20135;-92
2020/12/28 08:24:28;;;;;;;0.10;0.10;;;7.30;85.20;;;;;;4178913;28;20053;-90
2020/12/28 08:26:30;;;;;;;0.20;0.20;;;7.30;85.40;;;;;;4181454;28;20128;-91
2020/12/28 08:28:34;;;;;;;0.20;0.20;;;7.20;83.70;;;;;;4177410;28;20059;-92
2020/12/28 08:30:35;;;;;;;0.20;0.20;;;7.20;84.10;;;;;;4161800;28;20172;-88
2020/12/28 08:32:38;;;;;;;0.10;0.10;;;7.20;85.00;;;;;;4180699;28;20104;-92
2020/12/28 08:34:39;;;;;;;0.10;0.10;;;7.20;83.50;;;;;;4179919;28;20072;-89
2020/12/28 08:36:51;;;;;;;0.20;0.20;;;7.20;82.30;;;;;;4162857;28;20175;-90
2020/12/28 08:38:52;;;;;;;0.25;0.20;;;7.20;81.80;;;;;;4165914;28;20049;-90
2020/12/28 08:40:54;;;;;;;0.10;0.10;;;7.30;80.90;;;;;;4160393;28;20053;-88
2020/12/28 08:42:56;;;;;;;0.40;0.40;;;7.20;81.00;;;;;;4174470;28;20551;-88
2020/12/28 08:44:58;;;;;;;0.20;0.20;;;7.30;80.10;;;;;;4180336;28;20055;-89
2020/12/28 08:47:02;;;;;;;0.13;0.10;;;7.30;80.80;;;;;;4145548;28;20074;-91
2020/12/28 08:49:04;;;;;;;0.20;0.20;;;7.40;81.00;;;;;;4151885;28;20064;-90
2020/12/28 08:51:15;;;;;;;0.10;0.10;;;7.40;79.70;;;;;;4182851;28;20481;-92
2020/12/28 08:53:21;;;;;;;0.10;0.10;;;7.40;78.60;;;;;;4177665;28;20132;-90
2020/12/28 08:55:23;;;;;;;0.10;0.10;;;7.40;79.90;;;;;;4172713;28;20091;-86
2020/12/28 08:57:26;;;;;;;0.20;0.20;;;7.40;79.50;;;;;;4177921;28;20056;-87
2020/12/28 08:59:27;;;;;;;0.20;0.20;;;7.50;79.10;;;;;;4179992;28;20049;-87
2020/12/28 09:01:29;;;;;;;0.10;0.10;;;7.50;78.70;;;;;;4172372;28;20053;-90
2020/12/28 09:03:31;;;;;;;0.10;0.10;;;7.50;78.10;;;;;;4143815;28;20136;-90
2020/12/28 09:05:32;;;;;;;0.20;0.20;;;7.50;77.00;;;;;;4147774;28;20083;-86
2020/12/28 09:07:34;;;;;;;0.10;0.10;;;7.50;77.10;;;;;;4145787;28;20128;-87
2020/12/28 09:09:36;;;;;;;0.52;0.20;;;7.50;77.70;;;;;;4143481;28;20062;-87
2020/12/28 09:11:37;;;;;;;0.20;0.20;;;7.60;76.00;;;;;;4145148;28;20137;-87
2020/12/28 09:13:38;;;;;;;3.72;0.30;;;7.50;75.80;;;;;;4145249;28;20060;-89
2020/12/28 09:15:40;;;;;;;0.20;0.20;;;7.50;75.80;;;;;;4178921;28;20135;-89
2020/12/28 09:17:41;;;;;;;0.10;0.10;;;7.50;75.40;;;;;;4176398;28;20339;-89
2020/12/28 09:19:43;;;;;;;0.10;0.10;;;7.60;76.30;;;;;;4165295;28;20049;-88
2020/12/28 09:21:44;;;;;;;0.95;0.30;;;7.60;76.00;;;;;;4142037;28;20064;-88
2020/12/28 09:23:45;;;;;;;0.10;0.10;;;7.60;74.90;;;;;;4160934;28;20053;-88
2020/12/28 09:25:47;;;;;;;0.10;0.10;;;7.50;74.50;;;;;;4128205;28;20054;-88
2020/12/28 09:27:48;;;;;;;0.20;0.20;;;7.50;74.70;;;;;;4147101;28;20065;-88
2020/12/28 09:29:49;;;;;;;0.20;0.20;;;7.40;75.50;;;;;;4147902;28;20501;-88
2020/12/28 09:31:50;;;;;;;0.15;0.15;;;7.40;74.90;;;;;;4128586;28;20522;-88
2020/12/28 09:33:52;;;;;;;0.20;0.20;;;7.40;74.80;;;;;;4131322;28;20052;-88
2020/12/28 09:35:53;;;;;;;0.15;0.15;;;7.40;74.40;;;;;;4132105;28;20057;-89
2020/12/28 09:37:54;;;;;;;0.10;0.10;;;7.40;74.70;;;;;;4128816;28;20072;-88
2020/12/28 09:39:56;;;;;;;0.20;0.20;;;7.40;75.00;;;;;;4137535;28;20125;-89
2020/12/28 09:41:57;;;;;;;0.10;0.10;;;7.40;75.70;;;;;;4131842;28;20141;-89
2020/12/28 09:43:59;;;;;;;0.20;0.20;;;7.40;75.00;;;;;;4130731;28;20129;-89
2020/12/28 09:46:00;;;;;;;0.10;0.10;;;7.50;75.00;;;;;;4147340;28;20601;-89
2020/12/28 09:48:04;;;;;;;0.82;0.82;;;7.50;75.00;;;;;;4146579;28;20113;-89
2020/12/28 09:50:19;;;;;;;0.10;0.10;;;7.50;74.90;;;;;;4163418;28;20433;-88
2020/12/28 09:52:20;;;;;;;0.10;0.10;;;7.50;74.30;;;;;;4147012;28;20149;-88
2020/12/28 09:54:22;;;;;;;0.20;0.20;;;7.60;75.30;;;;;;4147282;28;20092;-88
2020/12/28 09:56:39;;;;;;;0.20;0.20;;;7.60;75.20;;;;;;4131656;28;20054;-90
2020/12/28 09:58:41;;;;;;;0.10;0.10;;;7.70;74.70;;;;;;4131764;28;20487;-88
2020/12/28 10:00:42;;;;;;;0.10;0.10;;;7.70;74.50;;;;;;4134371;28;20058;-88
2020/12/28 10:02:43;;;;;;;0.10;0.10;;;7.80;74.00;;;;;;4130776;28;20141;-88
2020/12/28 10:04:44;;;;;;;0.32;0.32;;;7.80;74.60;;;;;;4133940;28;20046;-89
2020/12/28 10:06:46;;;;;;;1.10;0.80;;;7.90;73.60;;;;;;4119851;28;20050;-88
2020/12/28 10:08:47;;;;;;;0.75;0.50;;;8.00;73.80;;;;;;4134223;28;20085;-88
2020/12/28 10:10:49;;;;;;;0.10;0.10;;;8.10;73.80;;;;;;4149891;28;20045;-88
2020/12/28 10:12:50;;;;;;;0.20;0.20;;;8.20;73.00;;;;;;4123832;28;20042;-88
2020/12/28 10:14:52;;;;;;;0.10;0.10;;;8.30;71.80;;;;;;4134313;28;20137;-88
2020/12/28 10:16:53;;;;;;;0.10;0.10;;;8.40;71.60;;;;;;4160365;28;20053;-88
2020/12/28 10:18:54;;;;;;;0.10;0.10;;;8.40;71.80;;;;;;4167911;28;20045;-88
2020/12/28 10:20:56;;;;;;;0.20;0.20;;;8.50;69.20;;;;;;4187232;28;20580;-89
2020/12/28 10:22:57;;;;;;;0.10;0.10;;;8.50;69.20;;;;;;4182785;28;20041;-88
2020/12/28 10:24:58;;;;;;;5.38;0.30;;;8.60;69.00;;;;;;4171517;28;20129;-89
2020/12/28 10:27:00;;;;;;;0.10;0.10;;;8.60;67.70;;;;;;4150207;28;20060;-89
2020/12/28 10:29:01;;;;;;;0.10;0.10;;;8.50;67.70;;;;;;4171957;28;20132;-89
2020/12/28 10:31:03;;;;;;;0.10;0.10;;;8.50;67.90;;;;;;4170474;28;20049;-89
2020/12/28 10:33:04;;;;;;;0.20;0.20;;;8.50;69.20;;;;;;4149420;28;20152;-90
2020/12/28 10:35:06;;;;;;;0.20;0.20;;;8.50;66.70;;;;;;4149819;28;20498;-89
2020/12/28 10:37:07;;;;;;;0.10;0.10;;;8.50;62.50;;;;;;4149746;28;20133;-89
2020/12/28 10:39:08;;;;;;;0.80;0.30;;;8.50;62.60;;;;;;4150260;28;20054;-90
2020/12/28 10:41:09;;;;;;;0.75;0.20;;;8.40;64.20;;;;;;4137852;28;20054;-89
2020/12/28 10:43:11;;;;;;;0.10;0.10;;;8.40;64.60;;;;;;4168744;28;20464;-88
2020/12/28 10:45:12;;;;;;;0.10;0.10;;;8.40;64.70;;;;;;4183009;28;20065;-89
2020/12/28 10:47:15;;;;;;;0.10;0.10;;;8.40;66.50;;;;;;4177217;28;20076;-89